Time;durP1;ratioP1;P1;durP2;ratioP2;P2;SDS_P1;SDS_P2;PMS_P1;PMS_P2;Temp;Humidity;BMP_temperature;BMP_pressure;BME280_temperature;BME280_humidity;BME280_pressure;Samples;Min_cycle;Max_cycle;Signal;HPM_P1;HPM_P2
2021/08/24 00:02:13;;;;;;;4.97;4.08;;;;;;;16.37;81.72;96497.34;1760658;80;20972;-82
2021/08/24 00:04:39;;;;;;;5.35;4.42;;;;;;;16.32;81.71;96489.34;1760325;80;21296;-82
2021/08/24 00:07:05;;;;;;;7.10;4.12;;;;;;;16.26;81.72;96489.66;1761932;80;20990;-81
2021/08/24 00:09:32;;;;;;;7.05;4.00;;;;;;;16.18;81.73;96485.50;1763960;80;20976;-81
2021/08/24 00:11:57;;;;;;;6.53;4.17;;;;;;;16.14;81.71;96479.60;1759666;80;20963;-81
2021/08/24 00:14:23;;;;;;;6.58;4.30;;;;;;;16.10;81.77;96470.03;1756754;80;20972;-81
2021/08/24 00:16:49;;;;;;;5.90;4.30;;;;;;;16.08;81.73;96477.31;1765743;80;20957;-81
2021/08/24 00:19:15;;;;;;;8.53;5.22;;;;;;;16.05;81.87;96471.70;1756092;80;21337;-81
2021/08/24 00:21:40;;;;;;;4.62;4.20;;;;;;;16.02;81.98;96475.55;1761698;80;20947;-81
2021/08/24 00:24:06;;;;;;;5.37;4.60;;;;;;;16.02;82.04;96481.30;1760688;80;21007;-81
2021/08/24 00:26:32;;;;;;;6.33;4.97;;;;;;;16.00;82.08;96477.59;1753399;80;22095;-80
2021/08/24 00:28:58;;;;;;;5.70;4.97;;;;;;;15.98;82.22;96474.38;1767890;80;21062;-81
2021/08/24 00:31:24;;;;;;;6.22;5.25;;;;;;;15.94;82.24;96477.11;1764073;80;21291;-81
2021/08/24 00:33:50;;;;;;;6.40;4.65;;;;;;;15.92;82.17;96493.55;1759966;80;20976;-81
2021/08/24 00:36:16;;;;;;;5.83;4.65;;;;;;;15.88;82.06;96487.14;1766966;80;20984;-81
2021/08/24 00:38:42;;;;;;;6.55;4.37;;;;;;;15.87;82.26;96490.27;1735363;80;20989;-81
2021/08/24 00:41:08;;;;;;;6.83;4.72;;;;;;;15.87;82.18;96491.58;1739169;80;20985;-81
2021/08/24 00:43:37;;;;;;;5.55;5.00;;;;;;;15.85;82.18;96487.06;1737410;80;21005;-80
2021/08/24 00:46:28;;;;;;;7.65;5.40;;;;;;;15.84;82.28;96490.70;1738780;80;21494;-81
2021/08/24 00:48:54;;;;;;;8.03;5.37;;;;;;;15.81;82.34;96492.95;1735680;81;21040;-81
2021/08/24 00:51:22;;;;;;;7.53;6.20;;;;;;;15.78;82.51;96491.55;1736640;80;21434;-81
2021/08/24 00:53:48;;;;;;;5.97;5.35;;;;;;;15.78;82.67;96497.27;1743079;80;21407;-80
2021/08/24 00:56:14;;;;;;;8.43;5.78;;;;;;;15.78;82.99;96508.59;1740228;80;20993;-81
2021/08/24 00:58:40;;;;;;;10.20;9.03;;;;;;;15.80;83.08;96505.75;1734935;80;20965;-81
2021/08/24 01:01:05;;;;;;;11.28;9.43;;;;;;;15.86;83.50;96516.69;1744056;81;20945;-81
2021/08/24 01:03:38;;;;;;;10.38;8.65;;;;;;;15.91;83.52;96518.95;1738421;80;20940;-81
2021/08/24 01:06:34;;;;;;;13.58;9.98;;;;;;;15.98;83.56;96518.93;1738967;80;21135;-81
2021/08/24 01:09:08;;;;;;;12.00;10.35;;;;;;;16.04;83.49;96523.31;1736795;80;21381;-80
2021/08/24 01:12:15;;;;;;;11.70;9.33;;;;;;;16.11;83.50;96528.53;1727815;80;21057;-80
2021/08/24 01:15:21;;;;;;;11.22;10.03;;;;;;;16.16;83.52;96522.12;1736868;80;21009;-80
2021/08/24 01:17:56;;;;;;;11.73;10.53;;;;;;;16.21;83.40;96517.84;1741754;80;21052;-80
2021/08/24 01:20:41;;;;;;;11.73;10.53;;;;;;;16.28;83.35;96520.43;1737073;80;20941;-80
2021/08/24 01:23:45;;;;;;;10.98;9.65;;;;;;;16.32;83.49;96509.00;1734692;81;21463;-80
2021/08/24 01:26:31;;;;;;;10.72;8.85;;;;;;;16.33;83.46;96510.61;1771034;79;21114;-80
2021/08/24 01:29:42;;;;;;;14.15;11.05;;;;;;;16.36;83.42;96511.48;1770997;79;20944;-80
2021/08/24 01:32:38;;;;;;;12.95;11.18;;;;;;;16.38;83.46;96495.82;1742308;80;20977;-80
2021/08/24 01:35:46;;;;;;;14.70;10.98;;;;;;;16.39;83.34;96495.31;1796637;78;21343;-80
2021/08/24 01:38:23;;;;;;;13.48;11.80;;;;;;;16.42;83.42;96501.44;1786970;79;21688;-80
2021/08/24 01:41:18;;;;;;;12.23;10.50;;;;;;;16.47;83.30;96504.23;1778634;79;21056;-80
2021/08/24 01:44:03;;;;;;;13.13;11.00;;;;;;;16.46;83.37;96509.98;1762006;80;21044;-80
2021/08/24 01:47:01;;;;;;;12.00;9.90;;;;;;;16.48;83.25;96505.33;1724557;80;20996;-80
2021/08/24 01:49:33;;;;;;;11.57;9.43;;;;;;;16.51;83.20;96509.33;1769469;80;21064;-80
2021/08/24 01:52:02;;;;;;;12.15;10.93;;;;;;;16.53;83.22;96511.23;1768487;80;20920;-80
2021/08/24 01:54:41;;;;;;;15.63;12.00;;;;;;;16.57;83.28;96519.47;1745041;80;21014;-80
2021/08/24 01:57:11;;;;;;;14.43;10.95;;;;;;;16.57;83.29;96517.64;1753483;80;21007;-80
2021/08/24 01:59:51;;;;;;;18.50;14.43;;;;;;;16.60;83.61;96516.43;1774735;80;20971;-80
2021/08/24 02:02:26;;;;;;;17.50;14.20;;;;;;;16.63;83.68;96518.62;1738971;81;21391;-80
2021/08/24 02:05:02;;;;;;;15.43;11.85;;;;;;;16.65;83.79;96513.95;1741623;81;21017;-80
2021/08/24 02:07:30;;;;;;;13.05;10.63;;;;;;;16.67;83.75;96515.37;1739740;81;20942;-80
2021/08/24 02:10:02;;;;;;;11.03;9.75;;;;;;;16.70;83.60;96510.20;1740318;81;20977;-80
2021/08/24 02:12:31;;;;;;;11.57;10.38;;;;;;;16.69;83.64;96511.22;1797510;79;21031;-80
2021/08/24 02:14:56;;;;;;;12.13;10.72;;;;;;;16.70;83.65;96508.88;1787780;78;21035;-80
2021/08/24 02:17:22;;;;;;;15.68;13.98;;;;;;;16.65;83.43;96511.33;1798227;79;20918;-80
2021/08/24 02:20:04;;;;;;;16.90;12.60;;;;;;;16.60;83.71;96502.01;1803008;78;20924;-80
2021/08/24 02:22:33;;;;;;;15.38;12.88;;;;;;;16.58;83.92;96506.64;1739266;78;20951;-80
2021/08/24 02:25:04;;;;;;;13.95;12.43;;;;;;;16.55;83.92;96501.32;1743813;80;21330;-80
2021/08/24 02:27:32;;;;;;;14.70;13.18;;;;;;;16.53;83.99;96502.56;1770919;80;20953;-80
2021/08/24 02:29:58;;;;;;;15.13;13.30;;;;;;;16.48;83.97;96501.91;1767443;79;21134;-80
2021/08/24 02:32:36;;;;;;;15.05;13.40;;;;;;;16.49;84.48;96496.95;1761994;79;21390;-80
2021/08/24 02:35:37;;;;;;;19.20;15.58;;;;;;;16.52;84.38;96500.45;1742022;80;21017;-80
2021/08/24 02:38:23;;;;;;;18.80;15.43;;;;;;;16.54;84.32;96498.41;1726306;81;21052;-81
2021/08/24 02:41:23;;;;;;;18.62;14.73;;;;;;;16.57;84.31;96495.86;1803520;78;21008;-80
2021/08/24 02:44:02;;;;;;;16.65;14.18;;;;;;;16.55;84.44;96487.41;1802018;78;20909;-80
2021/08/24 02:46:31;;;;;;;18.87;15.23;;;;;;;16.53;84.58;96492.87;1797973;78;20956;-80
2021/08/24 02:49:04;;;;;;;20.20;16.75;;;;;;;16.54;84.60;96491.05;1797691;78;20961;-80
2021/08/24 02:51:30;;;;;;;24.72;18.98;;;;;;;16.58;84.82;96491.70;1790200;78;20948;-80
2021/08/24 02:54:19;;;;;;;20.08;15.98;;;;;;;16.65;84.81;96496.39;1753087;80;20941;-80
2021/08/24 02:56:45;;;;;;;25.77;19.10;;;;;;;16.68;84.90;96490.73;1734418;80;21500;-80
2021/08/24 02:59:11;;;;;;;26.85;21.60;;;;;;;16.74;84.94;96487.23;1796971;78;21423;-80
2021/08/24 03:01:37;;;;;;;25.82;21.12;;;;;;;16.79;84.67;96490.53;1801649;78;20964;-80
2021/08/24 03:04:04;;;;;;;28.95;22.25;;;;;;;16.77;84.55;96486.83;1791538;78;20927;-80
2021/08/24 03:06:29;;;;;;;26.23;20.70;;;;;;;16.75;84.31;96486.72;1806976;78;21341;-80
2021/08/24 03:08:55;;;;;;;26.10;20.70;;;;;;;16.75;84.56;96484.09;1801820;78;20948;-81
2021/08/24 03:11:25;;;;;;;26.35;20.88;;;;;;;16.70;84.53;96475.58;1802284;78;20998;-80
2021/08/24 03:14:08;;;;;;;26.93;20.35;;;;;;;16.66;84.57;96479.63;1800480;78;21551;-80
2021/08/24 03:16:45;;;;;;;22.50;18.87;;;;;;;16.59;84.54;96476.25;1796470;78;20965;-80
2021/08/24 03:19:19;;;;;;;25.72;19.60;;;;;;;16.57;84.74;96479.61;1799390;78;21371;-80
2021/08/24 03:21:44;;;;;;;23.55;19.30;;;;;;;16.57;84.95;96478.80;1781158;78;21368;-80
2021/08/24 03:24:12;;;;;;;23.20;18.70;;;;;;;16.61;84.89;96490.49;1775583;80;20964;-80
2021/08/24 03:26:40;;;;;;;23.98;18.55;;;;;;;16.64;84.84;96492.67;1766538;80;21409;-80
2021/08/24 03:29:11;;;;;;;20.70;17.77;;;;;;;16.66;84.75;96490.13;1800957;78;20933;-80
2021/08/24 03:31:37;;;;;;;24.05;19.12;;;;;;;16.69;85.17;96485.78;1799738;78;20954;-80
2021/08/24 03:34:04;;;;;;;22.87;18.87;;;;;;;16.77;85.31;96489.45;1807115;78;20974;-80
2021/08/24 03:36:30;;;;;;;24.65;18.73;;;;;;;16.82;84.76;96491.41;1796853;78;21416;-80
2021/08/24 03:38:55;;;;;;;27.13;20.65;;;;;;;16.80;84.60;96495.56;1795138;78;21013;-80
2021/08/24 03:41:21;;;;;;;21.70;18.10;;;;;;;16.77;84.50;96493.89;1803602;78;20999;-80
2021/08/24 03:43:47;;;;;;;21.23;17.92;;;;;;;16.79;84.67;96501.03;1797782;78;21638;-80
2021/08/24 03:46:12;;;;;;;22.25;18.48;;;;;;;16.81;84.73;96501.61;1801123;78;20929;-80
2021/08/24 03:48:38;;;;;;;24.00;19.90;;;;;;;16.80;84.79;96503.44;1799277;78;21024;-80
2021/08/24 03:51:04;;;;;;;23.67;19.35;;;;;;;16.67;84.61;96506.70;1797607;78;21561;-79
2021/08/24 03:53:31;;;;;;;25.10;21.42;;;;;;;16.64;84.79;96513.16;1798189;78;21040;-80
2021/08/24 03:55:56;;;;;;;24.45;20.43;;;;;;;16.65;85.01;96510.82;1800068;78;21030;-80
2021/08/24 03:58:22;;;;;;;26.60;20.77;;;;;;;16.65;85.12;96512.64;1801779;78;21525;-80
2021/08/24 04:00:48;;;;;;;25.65;21.73;;;;;;;16.71;85.45;96511.28;1791197;78;21006;-80
2021/08/24 04:03:14;;;;;;;28.55;22.07;;;;;;;16.75;85.10;96508.52;1799482;78;21032;-80
2021/08/24 04:05:39;;;;;;;30.48;22.17;;;;;;;16.72;85.08;96511.58;1802175;78;22208;-80
2021/08/24 04:08:06;;;;;;;27.52;22.27;;;;;;;16.75;85.17;96515.08;1794394;78;21031;-80
2021/08/24 04:10:31;;;;;;;26.82;21.70;;;;;;;16.79;84.97;96514.16;1800618;78;20937;-80
2021/08/24 04:12:57;;;;;;;27.65;21.77;;;;;;;16.83;84.84;96514.52;1797022;78;21423;-80
2021/08/24 04:15:23;;;;;;;25.75;20.35;;;;;;;16.80;84.63;96515.76;1798960;78;21005;-80
2021/08/24 04:17:49;;;;;;;28.20;22.93;;;;;;;16.82;84.90;96512.91;1795221;78;21392;-81
2021/08/24 04:20:15;;;;;;;29.80;23.38;;;;;;;16.84;85.19;96512.98;1793819;78;20944;-80
2021/08/24 04:22:43;;;;;;;30.48;23.67;;;;;;;16.85;85.01;96515.09;1800869;78;21347;-80
2021/08/24 04:25:10;;;;;;;29.05;22.45;;;;;;;16.87;84.87;96514.36;1799262;78;20941;-80
2021/08/24 04:27:35;;;;;;;28.90;23.25;;;;;;;16.85;84.79;96510.65;1796151;78;21075;-80
2021/08/24 04:30:02;;;;;;;29.95;24.75;;;;;;;16.86;84.81;96516.70;1797585;78;20997;-80
2021/08/24 04:32:28;;;;;;;33.28;24.75;;;;;;;16.87;84.71;96519.10;1786780;78;20997;-80
2021/08/24 04:34:55;;;;;;;33.02;25.05;;;;;;;16.84;84.97;96526.10;1792779;78;20948;-80
2021/08/24 04:37:21;;;;;;;32.90;25.43;;;;;;;16.91;85.19;96531.27;1804070;78;21000;-80
2021/08/24 04:39:46;;;;;;;34.95;26.50;;;;;;;16.85;84.76;96529.53;1801694;78;20961;-80
2021/08/24 04:42:12;;;;;;;32.23;25.52;;;;;;;16.84;84.76;96538.42;1763519;78;21326;-80
2021/08/24 04:44:38;;;;;;;35.45;25.30;;;;;;;16.74;84.73;96531.84;1767874;78;20929;-80
2021/08/24 04:47:03;;;;;;;34.90;26.27;;;;;;;16.72;84.97;96532.56;1799973;78;20968;-80
2021/08/24 04:49:29;;;;;;;31.52;27.42;;;;;;;16.72;84.95;96537.81;1797878;78;21389;-80
2021/08/24 04:51:55;;;;;;;31.68;27.85;;;;;;;16.73;84.99;96535.99;1799814;78;20960;-80
2021/08/24 04:54:21;;;;;;;34.98;27.42;;;;;;;16.69;84.81;96533.00;1767321;80;21108;-80
2021/08/24 04:56:46;;;;;;;37.58;29.20;;;;;;;16.63;84.91;96540.41;1768625;80;21122;-80
2021/08/24 04:59:12;;;;;;;32.28;27.73;;;;;;;16.64;85.00;96535.45;1718668;82;21426;-80
2021/08/24 05:01:38;;;;;;;34.98;29.05;;;;;;;16.65;84.93;96540.99;1736427;81;20975;-79
2021/08/24 05:04:03;;;;;;;30.77;25.88;;;;;;;16.61;85.00;96545.07;1740268;80;20914;-80
2021/08/24 05:06:29;;;;;;;31.10;25.35;;;;;;;16.59;84.99;96541.03;1732997;81;21415;-80
2021/08/24 05:08:55;;;;;;;32.42;26.68;;;;;;;16.58;85.04;96546.78;1743313;81;21006;-80
2021/08/24 05:11:21;;;;;;;32.63;26.35;;;;;;;16.57;85.15;96545.19;1711932;82;21036;-80
2021/08/24 05:13:47;;;;;;;31.33;25.30;;;;;;;16.55;85.16;96540.66;1737379;80;21390;-80
2021/08/24 05:16:13;;;;;;;30.12;25.80;;;;;;;16.55;85.32;96541.17;1735320;80;21006;-80
2021/08/24 05:18:40;;;;;;;33.23;27.07;;;;;;;16.55;85.28;96548.53;1740954;80;21316;-80
2021/08/24 05:21:13;;;;;;;31.75;25.55;;;;;;;16.53;85.13;96547.95;1741445;80;20958;-80
2021/08/24 05:23:40;;;;;;;31.00;25.30;;;;;;;16.50;85.12;96546.56;1722321;81;20981;-80
2021/08/24 05:26:09;;;;;;;34.53;27.50;;;;;;;16.42;85.01;96544.70;1721236;82;20942;-80
2021/08/24 05:28:35;;;;;;;35.15;27.70;;;;;;;16.42;85.25;96548.64;1742919;81;21134;-80
2021/08/24 05:31:01;;;;;;;36.63;27.85;;;;;;;16.45;85.36;96548.23;1745294;80;21535;-80
2021/08/24 05:33:26;;;;;;;32.50;26.05;;;;;;;16.43;85.49;96558.11;1739551;81;21044;-80
2021/08/24 05:35:53;;;;;;;36.85;27.50;;;;;;;16.43;85.53;96548.93;1740710;81;21028;-80
2021/08/24 05:38:18;;;;;;;33.38;26.87;;;;;;;16.44;85.61;96558.44;1739583;81;21011;-80
2021/08/24 05:40:45;;;;;;;33.00;25.30;;;;;;;16.41;85.59;96553.08;1737208;81;20966;-80
2021/08/24 05:43:10;;;;;;;33.53;27.35;;;;;;;16.38;85.65;96556.14;1741664;81;21315;-80
2021/08/24 05:45:36;;;;;;;35.48;26.87;;;;;;;16.40;85.79;96561.97;1746554;81;20925;-80
2021/08/24 05:48:02;;;;;;;32.83;25.82;;;;;;;16.37;85.65;96562.40;1740694;81;20952;-80
2021/08/24 05:50:27;;;;;;;34.92;26.80;;;;;;;16.36;85.91;96562.61;1770072;79;20928;-80
2021/08/24 05:52:54;;;;;;;31.90;25.43;;;;;;;16.37;85.94;96561.59;1759620;80;20923;-80
2021/08/24 05:55:19;;;;;;;31.25;24.30;;;;;;;16.42;86.06;96556.51;1753262;80;20992;-80
2021/08/24 05:57:45;;;;;;;34.23;25.45;;;;;;;16.47;86.10;96561.94;1814396;78;20988;-80
2021/08/24 06:00:12;;;;;;;35.92;28.02;;;;;;;16.55;86.29;96559.53;1783013;78;21329;-80
2021/08/24 06:02:38;;;;;;;34.92;27.87;;;;;;;16.62;85.97;96565.03;1815877;78;20913;-80
2021/08/24 06:05:06;;;;;;;36.90;29.20;;;;;;;16.70;86.03;96560.84;1815468;77;20957;-80
2021/08/24 06:07:32;;;;;;;37.78;28.85;;;;;;;16.78;85.90;96571.59;1811442;77;21456;-80
2021/08/24 06:09:59;;;;;;;35.90;28.25;;;;;;;16.74;85.69;96577.75;1790155;79;20988;-80
2021/08/24 06:12:25;;;;;;;37.15;29.77;;;;;;;16.77;85.62;96573.92;1813367;78;21341;-80
2021/08/24 06:14:52;;;;;;;34.80;27.93;;;;;;;16.79;85.34;96579.76;1808952;78;20996;-80
2021/08/24 06:17:18;;;;;;;37.83;28.77;;;;;;;16.85;85.92;96584.13;1803640;77;20964;-80
2021/08/24 06:19:43;;;;;;;37.85;29.40;;;;;;;16.94;85.77;96590.72;1813168;77;21420;-80
2021/08/24 06:22:09;;;;;;;38.33;29.35;;;;;;;16.99;85.64;96587.44;1775475;79;20936;-80
2021/08/24 06:24:37;;;;;;;30.43;23.60;;;;;;;17.04;85.74;96594.14;1702961;82;20952;-79
2021/08/24 06:27:04;;;;;;;27.67;23.38;;;;;;;17.08;85.18;96597.94;1773050;80;20996;-80
2021/08/24 06:29:30;;;;;;;29.98;23.70;;;;;;;17.04;84.77;96596.77;1769267;80;20954;-80
2021/08/24 06:31:59;;;;;;;28.15;22.73;;;;;;;17.01;85.15;96599.84;1770648;81;20891;-80
2021/08/24 06:34:23;;;;;;;26.52;21.68;;;;;;;17.01;84.90;96605.08;1769604;80;21006;-79
2021/08/24 06:36:50;;;;;;;24.82;20.57;;;;;;;17.00;84.94;96604.80;1769060;81;21310;-80
2021/08/24 06:39:15;;;;;;;28.35;23.35;;;;;;;17.00;84.91;96606.10;1770182;79;21329;-79
2021/08/24 06:41:41;;;;;;;28.40;20.68;;;;;;;16.96;84.89;96603.63;1765870;79;20938;-80
2021/08/24 06:44:08;;;;;;;27.25;21.27;;;;;;;16.95;85.21;96604.64;1769523;80;20973;-80
2021/08/24 06:46:34;;;;;;;26.40;21.70;;;;;;;17.00;85.20;96609.53;1761394;80;21029;-79
2021/08/24 06:49:00;;;;;;;23.07;19.70;;;;;;;17.04;85.13;96609.39;1769076;80;21293;-80
2021/08/24 06:51:26;;;;;;;22.70;19.40;;;;;;;17.08;84.92;96611.89;1771834;79;20958;-79
2021/08/24 06:53:51;;;;;;;24.00;20.57;;;;;;;17.03;84.45;96610.92;1743128;80;21361;-80
2021/08/24 06:56:17;;;;;;;28.15;22.58;;;;;;;17.04;84.75;96608.58;1764221;79;21325;-80
2021/08/24 06:58:44;;;;;;;24.43;19.87;;;;;;;17.08;84.73;96613.69;1774355;79;21478;-80
2021/08/24 07:01:16;;;;;;;23.50;19.90;;;;;;;17.08;84.67;96617.63;1770945;80;20958;-80
2021/08/24 07:03:42;;;;;;;24.40;19.90;;;;;;;17.06;84.36;96615.22;1758940;80;20915;-79
2021/08/24 07:06:07;;;;;;;24.45;19.87;;;;;;;17.10;84.49;96620.86;1763000;81;20993;-80
2021/08/24 07:08:33;;;;;;;23.98;19.95;;;;;;;17.17;84.28;96619.47;1771574;79;20926;-80
2021/08/24 07:10:59;;;;;;;24.77;21.05;;;;;;;17.19;84.62;96614.30;1808118;78;21068;-79
2021/08/24 07:13:27;;;;;;;24.00;19.12;;;;;;;17.23;84.28;96623.34;1814096;77;21015;-80
2021/08/24 07:15:52;;;;;;;26.95;20.90;;;;;;;17.24;84.16;96625.45;1811283;78;21005;-81
2021/08/24 07:18:18;;;;;;;26.42;21.17;;;;;;;17.23;84.00;96629.90;1813813;79;21040;-81
2021/08/24 07:20:45;;;;;;;27.27;22.15;;;;;;;17.22;83.87;96626.18;1775643;78;21024;-81
2021/08/24 07:23:11;;;;;;;30.05;23.00;;;;;;;17.21;83.79;96624.58;1762431;79;21039;-81
2021/08/24 07:25:37;;;;;;;42.35;33.53;;;;;;;17.26;84.20;96626.06;1810115;78;22574;-81
2021/08/24 07:28:10;;;;;;;20.65;17.67;;;;;;;17.24;83.89;96625.45;1811004;79;21019;-80
2021/08/24 07:30:35;;;;;;;18.85;16.62;;;;;;;17.34;84.22;96624.45;1813209;77;21008;-81
2021/08/24 07:33:01;;;;;;;16.48;14.78;;;;;;;17.44;83.95;96618.19;1811447;78;20965;-81
2021/08/24 07:35:27;;;;;;;14.95;13.45;;;;;;;17.54;84.02;96620.28;1780878;77;21376;-80
2021/08/24 07:37:55;;;;;;;15.40;13.88;;;;;;;17.63;83.72;96616.36;1775858;78;20998;-80
2021/08/24 07:40:21;;;;;;;14.15;12.75;;;;;;;17.62;82.65;96616.87;1759219;80;20980;-81
2021/08/24 07:42:47;;;;;;;14.20;12.80;;;;;;;17.59;83.13;96619.94;1758487;80;21013;-81
2021/08/24 07:45:13;;;;;;;15.23;13.62;;;;;;;17.58;83.02;96618.84;1753965;80;20953;-81
2021/08/24 07:47:38;;;;;;;17.73;15.83;;;;;;;17.57;83.21;96626.41;1748572;80;20954;-80
2021/08/24 07:50:05;;;;;;;14.98;13.48;;;;;;;17.59;83.38;96625.20;1759645;81;20971;-81
2021/08/24 07:52:30;;;;;;;16.25;14.65;;;;;;;17.58;83.33;96626.73;1758407;81;21067;-81
2021/08/24 07:54:56;;;;;;;18.55;16.23;;;;;;;17.58;83.28;96627.53;1750774;80;21031;-81
2021/08/24 07:57:22;;;;;;;25.55;22.52;;;;;;;17.59;83.34;96630.96;1749231;80;20990;-80
2021/08/24 07:59:48;;;;;;;17.75;15.85;;;;;;;17.65;83.14;96631.39;1757219;80;20939;-80
2021/08/24 08:02:15;;;;;;;15.95;14.25;;;;;;;17.76;83.30;96633.83;1758164;80;20936;-80
2021/08/24 08:04:41;;;;;;;12.95;11.65;;;;;;;17.87;83.87;96638.32;1744161;80;20981;-80
2021/08/24 08:07:07;;;;;;;13.32;12.03;;;;;;;17.95;83.17;96644.09;1754782;80;20959;-80
2021/08/24 08:09:32;;;;;;;13.00;11.75;;;;;;;17.93;82.59;96650.09;1751272;79;21005;-80
2021/08/24 08:11:58;;;;;;;12.88;11.68;;;;;;;17.91;82.69;96645.56;1751631;80;20931;-80
2021/08/24 08:14:24;;;;;;;13.58;12.18;;;;;;;17.87;82.73;96632.55;1755429;80;21097;-80
2021/08/24 08:16:49;;;;;;;12.45;11.20;;;;;;;17.99;83.71;96645.25;1751443;80;20912;-80
2021/08/24 08:19:16;;;;;;;12.90;11.60;;;;;;;18.05;82.75;96640.12;1708879;82;20966;-80
2021/08/24 08:21:42;;;;;;;13.68;12.33;;;;;;;18.03;82.73;96647.43;1751403;80;20973;-80
2021/08/24 08:24:08;;;;;;;13.25;11.57;;;;;;;17.98;82.81;96652.84;1758305;80;21003;-80
2021/08/24 08:26:34;;;;;;;13.75;12.37;;;;;;;17.95;83.06;96650.66;1728602;81;20971;-80
2021/08/24 08:29:03;;;;;;;13.10;11.83;;;;;;;17.89;82.68;96652.05;1757190;80;21375;-80
2021/08/24 08:31:28;;;;;;;7.47;6.67;;;;;;;17.80;83.08;96664.70;1746606;80;20976;-80
2021/08/24 08:33:53;;;;;;;5.95;5.30;;;;;;;17.59;81.85;96666.43;1752267;80;21285;-80
2021/08/24 08:36:19;;;;;;;6.40;4.87;;;;;;;17.38;81.95;96667.12;1753210;80;20947;-80
2021/08/24 08:38:45;;;;;;;4.80;4.37;;;;;;;17.27;82.14;96668.37;1798024;77;20970;-80
2021/08/24 08:41:43;;;;;;;4.00;3.60;;;;;;;17.21;82.39;96671.84;1786230;79;20927;-80
2021/08/24 08:44:35;;;;;;;4.60;4.20;;;;;;;17.11;82.32;96677.60;1813967;77;21315;-80
2021/08/24 08:47:15;;;;;;;3.80;3.47;;;;;;;16.89;82.26;96678.47;1808128;77;20959;-80
2021/08/24 08:50:03;;;;;;;3.33;3.02;;;;;;;16.71;82.66;96684.45;1797056;78;20979;-80
2021/08/24 08:53:04;;;;;;;4.42;3.00;;;;;;;16.57;82.84;96686.03;1801306;78;20949;-80
2021/08/24 08:55:51;;;;;;;2.92;2.55;;;;;;;16.39;83.04;96685.44;1793898;78;20988;-81
2021/08/24 08:58:37;;;;;;;2.70;2.50;;;;;;;16.39;83.46;96689.38;1800655;78;21339;-80
2021/08/24 09:01:20;;;;;;;3.27;2.98;;;;;;;16.37;83.70;96696.65;1795887;78;20964;-80
2021/08/24 09:04:09;;;;;;;4.90;3.08;;;;;;;16.34;84.05;96696.56;1810642;78;21004;-81
2021/08/24 09:06:35;;;;;;;2.87;2.65;;;;;;;16.35;84.48;96703.92;1803098;78;20951;-80
2021/08/24 09:09:01;;;;;;;2.80;2.27;;;;;;;16.25;83.66;96701.74;1812375;78;20984;-80
2021/08/24 09:11:31;;;;;;;2.60;2.10;;;;;;;16.18;83.57;96703.09;1787915;79;21101;-81
2021/08/24 09:14:14;;;;;;;2.87;2.33;;;;;;;16.08;84.25;96704.03;1817805;78;21634;-81
2021/08/24 09:16:52;;;;;;;2.35;1.98;;;;;;;15.99;84.07;96709.23;1789209;78;20954;-81
2021/08/24 09:19:25;;;;;;;2.20;1.98;;;;;;;15.98;84.44;96709.44;1804994;77;21059;-80
2021/08/24 09:21:51;;;;;;;2.20;2.00;;;;;;;15.95;84.46;96716.41;1794991;78;20973;-80
2021/08/24 09:24:21;;;;;;;4.03;3.10;;;;;;;15.82;83.89;96717.25;1808448;78;21334;-80
2021/08/24 09:27:03;;;;;;;2.58;2.27;;;;;;;15.61;84.51;96715.67;1794167;78;20922;-80
2021/08/24 09:29:46;;;;;;;3.02;2.27;;;;;;;15.50;84.42;96724.14;1799483;77;20981;-80
2021/08/24 09:32:15;;;;;;;1.70;1.60;;;;;;;15.42;84.21;96725.14;1808551;78;21331;-80
2021/08/24 09:34:44;;;;;;;2.85;1.75;;;;;;;15.33;84.56;96729.50;1815419;78;21023;-80
2021/08/24 09:37:16;;;;;;;1.92;1.52;;;;;;;15.29;84.74;96735.16;1811931;78;20944;-80
2021/08/24 09:39:58;;;;;;;1.30;1.00;;;;;;;15.27;84.96;96737.64;1806931;77;21402;-80
2021/08/24 09:42:43;;;;;;;0.90;0.75;;;;;;;15.20;84.88;96748.13;1799726;78;21000;-80
2021/08/24 09:45:26;;;;;;;1.75;0.85;;;;;;;15.18;85.06;96748.03;1801279;78;20940;-80
2021/08/24 09:48:06;;;;;;;1.25;1.15;;;;;;;15.15;85.11;96754.98;1798897;78;20937;-80
2021/08/24 09:50:35;;;;;;;3.83;1.10;;;;;;;15.08;84.81;96764.63;1794239;78;20995;-80
2021/08/24 09:53:01;;;;;;;1.07;0.78;;;;;;;14.96;84.65;96764.41;1795147;78;20949;-80
2021/08/24 09:55:30;;;;;;;1.55;1.00;;;;;;;14.89;85.18;96771.45;1797542;78;20978;-80
2021/08/24 09:58:03;;;;;;;1.02;0.93;;;;;;;14.75;85.07;96779.77;1804151;78;21068;-80
2021/08/24 10:00:55;;;;;;;2.00;1.00;;;;;;;14.66;85.41;96780.47;1795268;78;20981;-79
2021/08/24 10:03:39;;;;;;;1.15;0.80;;;;;;;14.68;85.92;96788.92;1758176;79;20972;-80
2021/08/24 10:06:24;;;;;;;1.22;0.80;;;;;;;14.59;85.31;96792.70;1803722;79;20919;-81
2021/08/24 10:08:55;;;;;;;2.92;0.60;;;;;;;14.63;86.00;96793.11;1812467;78;21261;-81
2021/08/24 10:11:32;;;;;;;2.20;1.02;;;;;;;14.64;86.12;96798.65;1788996;79;21364;-80
2021/08/24 10:14:23;;;;;;;1.50;0.80;;;;;;;14.64;85.79;96800.80;1809308;78;21336;-80
2021/08/24 10:16:51;;;;;;;0.60;0.50;;;;;;;14.70;85.98;96810.45;1793457;78;20946;-81
2021/08/24 10:19:31;;;;;;;0.98;0.60;;;;;;;14.73;85.86;96802.71;1804772;78;20977;-81
2021/08/24 10:22:06;;;;;;;0.75;0.60;;;;;;;14.65;85.38;96803.70;1801676;78;20933;-81
2021/08/24 10:24:39;;;;;;;0.80;0.50;;;;;;;14.66;85.97;96810.55;1805908;78;21011;-81
2021/08/24 10:27:10;;;;;;;1.27;0.50;;;;;;;14.71;86.30;96816.49;1755330;79;21357;-81
2021/08/24 10:29:37;;;;;;;1.57;0.85;;;;;;;14.77;86.05;96813.08;1756218;80;20998;-80
2021/08/24 10:32:09;;;;;;;0.85;0.80;;;;;;;14.83;86.07;96815.42;1745805;80;20960;-80
2021/08/24 10:34:42;;;;;;;1.52;0.50;;;;;;;14.84;85.68;96817.03;1744762;81;21009;-80
2021/08/24 10:37:31;;;;;;;1.60;0.57;;;;;;;14.78;85.49;96821.73;1803515;78;20984;-80
2021/08/24 10:40:12;;;;;;;0.78;0.53;;;;;;;14.77;86.15;96824.84;1803210;78;20949;-80
2021/08/24 10:42:59;;;;;;;0.80;0.47;;;;;;;14.74;85.21;96836.21;1799892;78;21327;-80
2021/08/24 10:45:30;;;;;;;0.68;0.60;;;;;;;14.68;86.11;96829.97;1797344;78;20972;-80
2021/08/24 10:48:01;;;;;;;2.35;0.95;;;;;;;14.69;86.05;96832.88;1753316;81;20984;-80
2021/08/24 10:51:10;;;;;;;0.90;0.80;;;;;;;14.70;85.81;96835.80;1719720;82;20985;-79
2021/08/24 10:54:06;;;;;;;2.22;1.00;;;;;;;14.69;85.92;96847.27;1754391;81;20989;-80
2021/08/24 10:56:54;;;;;;;2.50;1.20;;;;;;;14.70;86.37;96844.96;1803823;78;21000;-80
2021/08/24 10:59:31;;;;;;;2.67;0.82;;;;;;;14.73;86.16;96844.56;1801363;78;21052;-80
2021/08/24 11:02:35;;;;;;;1.62;1.00;;;;;;;14.64;86.17;96851.79;1787464;78;21390;-80
2021/08/24 11:05:24;;;;;;;0.85;0.60;;;;;;;14.63;86.13;96850.65;1760161;80;20968;-80
2021/08/24 11:08:11;;;;;;;1.00;0.70;;;;;;;14.59;85.88;96855.47;1770233;80;20995;-80
2021/08/24 11:10:48;;;;;;;2.42;0.95;;;;;;;14.58;86.32;96856.47;1766758;80;21051;-80
2021/08/24 11:13:41;;;;;;;1.15;0.80;;;;;;;14.56;86.18;96859.79;1766352;80;20989;-80
2021/08/24 11:16:30;;;;;;;1.92;1.10;;;;;;;14.58;86.24;96859.59;1675832;80;21455;-80
2021/08/24 11:19:25;;;;;;;2.80;1.00;;;;;;;14.61;86.14;96866.54;1797547;78;20945;-80
2021/08/24 11:21:59;;;;;;;1.25;1.00;;;;;;;14.56;86.18;96868.94;1811759;78;20987;-80
2021/08/24 11:24:43;;;;;;;1.37;1.10;;;;;;;14.59;86.41;96878.20;1755859;80;21005;-80
2021/08/24 11:27:24;;;;;;;1.30;1.00;;;;;;;14.50;85.87;96883.30;1766796;80;21051;-80
2021/08/24 11:29:53;;;;;;;1.75;1.20;;;;;;;14.46;86.12;96881.55;1762452;80;21376;-80
2021/08/24 11:32:29;;;;;;;1.72;1.30;;;;;;;14.46;86.32;96884.67;1806699;78;20914;-80
2021/08/24 11:35:13;;;;;;;1.85;1.55;;;;;;;14.50;86.28;96889.84;1809927;78;20988;-80
2021/08/24 11:37:47;;;;;;;1.62;1.20;;;;;;;14.51;86.20;96892.77;1759437;80;20976;-80
2021/08/24 11:40:20;;;;;;;2.10;1.32;;;;;;;14.54;86.22;96892.37;1803646;79;21301;-80
2021/08/24 11:42:51;;;;;;;2.40;1.87;;;;;;;14.56;86.55;96895.59;1807189;78;21396;-80
2021/08/24 11:45:28;;;;;;;4.22;1.95;;;;;;;14.52;85.71;96907.45;1801099;78;20958;-80
2021/08/24 11:48:01;;;;;;;2.85;2.10;;;;;;;14.48;85.94;96904.89;1780824;79;20954;-80